Time;durP1;ratioP1;P1;durP2;ratioP2;P2;SDS_P1;SDS_P2;PMS_P1;PMS_P2;Temp;Humidity;BMP_temperature;BMP_pressure;BME280_temperature;BME280_humidity;BME280_pressure;Samples;Min_cycle;Max_cycle;Signal;HPM_P1;HPM_P2
2022/01/05 00:00:36;;;;;;;;;2.00;1.00;;;;;8.95;54.51;100433.50;4975152;28;45590;-87
2022/01/05 00:03:01;;;;;;;;;0.00;0.00;;;;;9.15;54.72;100472.53;4974496;28;45499;-86
2022/01/05 00:05:27;;;;;;;;;3.33;2.00;;;;;8.59;55.02;100377.44;4963211;28;45804;-86
2022/01/05 00:07:52;;;;;;;;;0.33;0.33;;;;;9.10;54.06;100469.22;4956920;28;45420;-86
2022/01/05 00:10:17;;;;;;;;;1.00;1.00;;;;;8.76;54.12;100424.59;5042002;28;45567;-86
2022/01/05 00:12:43;;;;;;;;;1.33;1.00;;;;;9.15;54.16;100487.63;4956021;28;45249;-86
2022/01/05 00:15:09;;;;;;;;;1.00;1.00;;;;;9.24;54.39;100514.69;4964270;28;47233;-86
2022/01/05 00:17:35;;;;;;;;;2.67;2.67;;;;;8.72;54.61;100430.94;4974188;28;45424;-86
2022/01/05 00:20:01;;;;;;;;;2.00;2.00;;;;;8.87;53.64;100455.09;4980649;28;45235;-86
2022/01/05 00:22:26;;;;;;;;;4.00;3.00;;;;;9.03;54.19;100478.38;5058244;28;45577;-86
2022/01/05 00:24:52;;;;;;;;;2.00;2.00;;;;;9.06;53.58;100491.53;4982203;28;45445;-86
2022/01/05 00:27:17;;;;;;;;;1.00;1.00;;;;;9.15;53.70;100514.22;4956976;28;45430;-86
2022/01/05 00:29:43;;;;;;;;;3.67;3.00;;;;;8.72;53.71;100441.56;4961937;28;45431;-86
2022/01/05 00:32:08;;;;;;;;;3.00;1.67;;;;;8.68;53.94;100442.63;4966904;28;45451;-87
2022/01/05 00:34:34;;;;;;;;;5.00;2.00;;;;;9.09;53.31;100518.88;4968133;28;45352;-84
2022/01/05 00:37:00;;;;;;;;;2.00;2.00;;;;;8.43;53.42;100411.75;4959456;28;45429;-84
2022/01/05 00:39:25;;;;;;;;;0.67;0.67;;;;;8.65;53.50;100457.75;4974589;28;45286;-84
2022/01/05 00:41:51;;;;;;;;;1.00;1.00;;;;;8.77;53.76;100484.75;4976302;28;45310;-84
2022/01/05 00:44:18;;;;;;;;;5.00;2.00;;;;;8.48;53.40;100446.94;4975337;28;45743;-84
2022/01/05 00:46:43;;;;;;;;;1.00;1.00;;;;;8.63;53.65;100472.88;4975994;28;45267;-84
2022/01/05 00:49:08;;;;;;;;;3.00;2.00;;;;;8.93;53.14;100530.19;4975560;28;45241;-84
2022/01/05 00:51:34;;;;;;;;;5.00;2.00;;;;;8.83;53.47;100516.41;4974443;28;45280;-84
2022/01/05 00:53:59;;;;;;;;;2.00;2.00;;;;;8.22;53.61;100430.22;4974403;28;46260;-84
2022/01/05 00:56:24;;;;;;;;;4.00;2.00;;;;;8.55;54.06;100496.25;4971322;28;45415;-84
2022/01/05 00:58:50;;;;;;;;;1.00;1.00;;;;;7.86;53.34;100387.38;4955244;28;45334;-84
2022/01/05 01:01:15;;;;;;;;;0.00;0.00;;;;;8.50;53.84;100500.00;4955964;28;45752;-84
2022/01/05 01:03:40;;;;;;;;;2.33;2.33;;;;;8.32;53.77;100472.34;4955621;28;45331;-84
2022/01/05 01:06:06;;;;;;;;;3.67;3.00;;;;;8.74;53.74;100551.31;4964357;28;45473;-84
2022/01/05 01:08:32;;;;;;;;;2.00;2.00;;;;;8.58;54.69;100529.78;4974296;28;45436;-84
2022/01/05 01:10:58;;;;;;;;;4.00;3.67;;;;;7.83;54.33;100427.31;4975761;28;45375;-84
2022/01/05 01:13:23;;;;;;;;;3.00;1.67;;;;;8.52;54.45;100551.28;4973691;28;47957;-84
2022/01/05 01:15:51;;;;;;;;;4.33;2.00;;;;;8.60;54.80;100555.38;4974274;28;45385;-84
2022/01/05 01:18:17;;;;;;;;;3.33;2.00;;;;;8.05;54.53;100472.47;4974881;28;45326;-86
2022/01/05 01:20:43;;;;;;;;;2.33;2.00;;;;;7.97;54.99;100470.09;4974232;28;45188;-86
2022/01/05 01:23:09;;;;;;;;;1.00;1.00;;;;;7.90;55.03;100465.09;4973834;28;48172;-86
2022/01/05 01:25:34;;;;;;;;;2.67;2.00;;;;;8.52;54.99;100580.47;4990167;28;45705;-86
2022/01/05 01:28:00;;;;;;;;;1.00;1.00;;;;;8.49;55.40;100581.47;4974303;28;45481;-86
2022/01/05 01:30:25;;;;;;;;;4.00;2.00;;;;;8.12;54.83;100537.66;4974997;28;45604;-85
2022/01/05 01:32:51;;;;;;;;;2.00;2.00;;;;;8.01;55.14;100530.13;4974911;28;45866;-87
2022/01/05 01:35:16;;;;;;;;;2.00;2.00;;;;;8.21;55.10;100566.53;4974725;28;45503;-86
2022/01/05 01:37:42;;;;;;;;;4.00;3.00;;;;;8.36;55.00;100596.13;4975098;28;45401;-86
2022/01/05 01:40:08;;;;;;;;;4.00;4.00;;;;;7.82;55.00;100510.47;4974025;28;45531;-86
2022/01/05 01:42:34;;;;;;;;;1.33;1.33;;;;;8.15;55.41;100589.81;4973482;28;47176;-86
2022/01/05 01:45:00;;;;;;;;;3.00;2.00;;;;;8.01;55.65;100559.31;4973682;28;45814;-86
2022/01/05 01:47:25;;;;;;;;;1.00;1.00;;;;;7.69;54.93;100518.00;4972978;28;45362;-86
2022/01/05 01:49:50;;;;;;;;;1.00;1.00;;;;;8.33;55.21;100623.63;4975505;28;45279;-86
2022/01/05 01:52:16;;;;;;;;;4.00;1.00;;;;;7.41;54.94;100475.69;4973428;28;46933;-86
2022/01/05 01:54:41;;;;;;;;;2.00;2.00;;;;;8.09;55.46;100587.34;4973260;28;45390;-86
2022/01/05 01:57:08;;;;;;;;;1.00;0.00;;;;;7.43;55.55;100494.19;5059279;28;45361;-86
2022/01/05 01:59:34;;;;;;;;;6.67;2.00;;;;;7.96;54.72;100586.91;5059096;28;45297;-86
2022/01/05 02:02:00;;;;;;;;;2.00;2.00;;;;;8.12;55.67;100616.44;4972756;28;48486;-86
2022/01/05 02:04:25;;;;;;;;;3.67;3.33;;;;;7.37;55.38;100512.06;4974110;28;45378;-86
2022/01/05 02:06:51;;;;;;;;;2.33;1.33;;;;;7.68;54.86;100571.09;5059024;28;45337;-84
2022/01/05 02:09:17;;;;;;;;;3.00;1.00;;;;;7.82;54.88;100593.59;4973658;28;45419;-84
2022/01/05 02:11:43;;;;;;;;;2.00;2.00;;;;;7.53;54.90;100557.44;4974212;28;46063;-84
2022/01/05 02:14:08;;;;;;;;;1.67;1.67;;;;;8.18;54.75;100654.25;4974311;28;45407;-84
2022/01/05 02:16:38;;;;;;;;;3.33;2.33;;;;;7.80;54.77;100598.09;4961016;28;45977;-83
2022/01/05 02:19:04;;;;;;;;;5.00;4.00;;;;;7.81;54.91;100607.75;4954578;28;45409;-83
2022/01/05 02:21:32;;;;;;;;;1.67;1.67;;;;;7.94;55.14;100636.56;4962421;28;45381;-83
2022/01/05 02:23:58;;;;;;;;;3.00;1.00;;;;;7.64;54.62;100585.41;4972525;28;45771;-84
2022/01/05 02:26:24;;;;;;;;;5.33;2.00;;;;;7.92;54.14;100633.94;4974163;28;45535;-84
2022/01/05 02:28:49;;;;;;;;;4.67;1.00;;;;;7.66;54.17;100604.78;4977047;28;45506;-84
2022/01/05 02:31:15;;;;;;;;;3.00;1.33;;;;;7.46;54.02;100570.97;4975151;28;48072;-84
2022/01/05 02:33:41;;;;;;;;;3.00;3.00;;;;;7.64;54.30;100609.28;4976362;28;45471;-84
2022/01/05 02:36:08;;;;;;;;;2.00;1.00;;;;;8.08;54.01;100673.19;4970551;28;45369;-84
2022/01/05 02:38:34;;;;;;;;;3.67;2.67;;;;;8.06;53.70;100667.09;4956663;28;45567;-84
2022/01/05 02:41:07;;;;;;;;;5.67;2.00;;;;;7.29;54.43;100545.03;4960033;28;46025;-84
2022/01/05 02:43:32;;;;;;;;;3.67;2.00;;;;;7.94;54.39;100652.47;4977081;28;45333;-84
2022/01/05 02:45:58;;;;;;;;;3.00;1.67;;;;;7.59;54.55;100594.38;4976963;28;45349;-84
2022/01/05 02:48:23;;;;;;;;;3.00;3.00;;;;;8.01;54.10;100664.63;4977546;28;45377;-84
2022/01/05 02:50:48;;;;;;;;;2.00;1.00;;;;;7.66;54.09;100616.25;4976919;28;46372;-84
2022/01/05 02:53:14;;;;;;;;;1.00;1.00;;;;;7.33;54.20;100565.22;4976956;28;45207;-84
2022/01/05 02:55:39;;;;;;;;;2.00;0.33;;;;;7.77;53.99;100639.75;4977001;28;45492;-84
2022/01/05 02:58:04;;;;;;;;;1.00;1.00;;;;;7.80;53.90;100652.94;4977469;28;45367;-83
2022/01/05 03:00:30;;;;;;;;;2.67;1.00;;;;;7.93;54.11;100688.72;4976793;28;46358;-84
2022/01/05 03:02:56;;;;;;;;;2.00;2.00;;;;;7.69;54.12;100649.78;4967248;28;45419;-84
2022/01/05 03:05:21;;;;;;;;;2.00;2.00;;;;;7.54;53.79;100624.63;4975526;28;45504;-84
2022/01/05 03:07:46;;;;;;;;;2.00;1.00;;;;;7.95;53.83;100701.97;4976944;28;45471;-84
2022/01/05 03:10:14;;;;;;;;;4.00;2.00;;;;;7.52;53.80;100629.13;4976756;28;46185;-84
2022/01/05 03:12:42;;;;;;;;;4.00;2.00;;;;;7.89;53.91;100699.50;4976833;28;45438;-84
2022/01/05 03:15:09;;;;;;;;;2.00;2.00;;;;;7.54;54.11;100648.50;4976022;28;45304;-84
2022/01/05 03:17:34;;;;;;;;;2.00;1.00;;;;;7.86;53.92;100705.78;4976937;28;45460;-83
2022/01/05 03:19:59;;;;;;;;;3.00;1.00;;;;;7.77;53.49;100685.75;4976667;28;45210;-84
2022/01/05 03:22:25;;;;;;;;;2.33;1.00;;;;;7.88;53.74;100716.34;4976806;28;45503;-84
2022/01/05 03:24:50;;;;;;;;;3.00;1.00;;;;;7.24;54.18;100615.91;4975378;28;45532;-84
2022/01/05 03:27:16;;;;;;;;;4.00;2.00;;;;;7.17;53.87;100591.38;4977033;28;45803;-84
2022/01/05 03:29:41;;;;;;;;;0.67;0.00;;;;;7.75;54.15;100711.47;4976261;28;45618;-84
2022/01/05 03:32:08;;;;;;;;;2.00;1.00;;;;;7.51;54.00;100662.69;4976700;28;45611;-84
2022/01/05 03:34:35;;;;;;;;;2.00;1.00;;;;;7.47;53.94;100663.75;4976820;28;45455;-84
2022/01/05 03:37:01;;;;;;;;;5.00;0.00;;;;;7.56;53.71;100703.22;4975470;28;45242;-84
2022/01/05 03:39:26;;;;;;;;;5.33;2.00;;;;;7.07;53.72;100619.06;4976278;28;46657;-85
2022/01/05 03:41:51;;;;;;;;;2.00;2.00;;;;;7.14;54.12;100631.19;4976429;28;45404;-84
2022/01/05 03:44:17;;;;;;;;;1.00;1.00;;;;;7.80;53.99;100746.66;4971277;28;45562;-84
2022/01/05 03:46:42;;;;;;;;;1.00;1.00;;;;;7.79;53.82;100752.88;4956073;28;45522;-84
2022/01/05 03:49:07;;;;;;;;;3.67;1.00;;;;;7.59;54.38;100727.00;4956742;28;46301;-84
2022/01/05 03:51:33;;;;;;;;;1.00;1.00;;;;;7.38;54.09;100690.56;4968874;28;45464;-84
2022/01/05 03:53:58;;;;;;;;;1.00;1.00;;;;;7.50;54.20;100721.13;4976190;28;45307;-84
2022/01/05 03:56:23;;;;;;;;;1.00;1.00;;;;;7.03;54.36;100636.00;4975176;28;45416;-84
2022/01/05 03:58:49;;;;;;;;;1.00;1.00;;;;;7.00;54.30;100642.25;4975912;28;45503;-84
2022/01/05 04:01:14;;;;;;;;;1.00;1.00;;;;;7.26;54.55;100690.91;4974641;28;45631;-84
2022/01/05 04:03:40;;;;;;;;;2.00;2.00;;;;;7.78;54.30;100774.16;4975031;28;45682;-84
2022/01/05 04:06:06;;;;;;;;;1.00;1.00;;;;;7.19;54.58;100677.88;4976404;28;45425;-84
2022/01/05 04:08:31;;;;;;;;;2.67;1.67;;;;;7.30;55.24;100697.84;4975978;28;46498;-84
2022/01/05 04:10:56;;;;;;;;;3.00;1.67;;;;;7.56;54.69;100743.00;4975658;28;45412;-84
2022/01/05 04:13:22;;;;;;;;;3.00;1.00;;;;;7.74;54.73;100777.81;4976034;28;45729;-84
2022/01/05 04:15:47;;;;;;;;;3.00;0.00;;;;;7.04;54.28;100667.72;4976404;28;45489;-84
2022/01/05 04:18:12;;;;;;;;;2.00;2.00;;;;;7.39;54.98;100724.09;4974510;28;47266;-84
2022/01/05 04:20:38;;;;;;;;;0.00;0.00;;;;;7.41;54.42;100740.81;4976212;28;45551;-84
2022/01/05 04:23:03;;;;;;;;;1.00;1.00;;;;;7.24;54.58;100712.19;4975572;28;45427;-84
2022/01/05 04:25:29;;;;;;;;;1.00;1.00;;;;;7.18;54.44;100721.16;4971021;28;45446;-84
2022/01/05 04:27:54;;;;;;;;;2.00;2.00;;;;;7.41;54.15;100746.13;4963838;28;45775;-83
2022/01/05 04:30:19;;;;;;;;;1.00;1.00;;;;;7.33;54.35;100746.38;4973379;28;45518;-83
2022/01/05 04:32:45;;;;;;;;;1.00;1.00;;;;;7.33;54.84;100733.13;4975562;28;45534;-83
2022/01/05 04:35:13;;;;;;;;;2.00;2.00;;;;;7.60;54.81;100794.16;4964687;28;45354;-84
2022/01/05 04:37:40;;;;;;;;;2.33;1.00;;;;;7.60;54.45;100791.50;4955008;28;47070;-84
2022/01/05 04:40:07;;;;;;;;;2.00;2.00;;;;;6.66;54.88;100651.19;4955701;28;46039;-83
2022/01/05 04:42:33;;;;;;;;;1.00;1.00;;;;;7.36;54.99;100766.63;4956027;28;45339;-84
2022/01/05 04:44:58;;;;;;;;;1.67;1.00;;;;;6.74;54.91;100666.84;4956116;28;45497;-84
2022/01/05 04:47:23;;;;;;;;;2.67;1.00;;;;;6.67;54.97;100663.53;4954429;28;47276;-84
2022/01/05 04:49:49;;;;;;;;;2.00;1.00;;;;;6.76;54.83;100684.44;4953621;28;45462;-84
2022/01/05 04:52:15;;;;;;;;;1.67;1.67;;;;;6.92;54.60;100726.38;4961805;28;45341;-84
2022/01/05 04:54:40;;;;;;;;;1.33;1.00;;;;;6.83;54.86;100708.09;4974901;28;45347;-84
2022/01/05 04:57:06;;;;;;;;;2.00;2.00;;;;;6.80;54.89;100700.25;4974202;28;46304;-84
2022/01/05 04:59:32;;;;;;;;;3.00;3.00;;;;;6.98;54.69;100737.69;4975444;28;45192;-84
2022/01/05 05:01:58;;;;;;;;;2.00;2.00;;;;;7.18;54.99;100773.31;4966701;28;45246;-84
2022/01/05 05:04:23;;;;;;;;;3.33;2.33;;;;;6.85;55.03;100720.38;4954708;28;45371;-84
2022/01/05 05:06:49;;;;;;;;;2.67;2.67;;;;;7.23;54.88;100797.03;4954578;28;46459;-84
2022/01/05 05:09:15;;;;;;;;;2.00;2.00;;;;;7.09;54.90;100769.16;4955735;28;45409;-84
2022/01/05 05:11:41;;;;;;;;;3.00;3.00;;;;;6.98;55.26;100752.72;4963225;28;45330;-84
2022/01/05 05:14:06;;;;;;;;;2.00;2.00;;;;;7.05;54.83;100772.81;4975347;28;45556;-84
2022/01/05 05:16:31;;;;;;;;;1.00;1.00;;;;;7.30;55.32;100817.16;4974894;28;51242;-84
2022/01/05 05:18:57;;;;;;;;;2.00;2.00;;;;;7.09;55.07;100785.06;4975252;28;45449;-84
2022/01/05 05:21:22;;;;;;;;;2.67;2.00;;;;;7.13;55.93;100793.78;4974879;28;45603;-84
2022/01/05 05:23:47;;;;;;;;;2.00;2.00;;;;;7.49;55.07;100857.25;4975543;28;45460;-84
2022/01/05 05:26:13;;;;;;;;;2.00;2.00;;;;;7.39;55.20;100848.72;4974463;28;46399;-84
2022/01/05 05:28:38;;;;;;;;;3.67;2.33;;;;;7.04;55.04;100784.31;4975191;28;45427;-84
2022/01/05 05:31:03;;;;;;;;;4.33;3.00;;;;;7.47;55.69;100861.75;4974994;28;45428;-84
2022/01/05 05:33:29;;;;;;;;;5.33;3.00;;;;;7.28;55.49;100838.44;4974215;28;45525;-83
2022/01/05 05:35:54;;;;;;;;;5.00;1.67;;;;;7.03;55.64;100809.09;4975202;28;46412;-83
2022/01/05 05:38:20;;;;;;;;;4.00;3.00;;;;;6.77;55.74;100764.78;4974632;28;45479;-83
2022/01/05 05:40:45;;;;;;;;;2.00;2.00;;;;;6.82;55.52;100776.13;4974926;28;45716;-84
2022/01/05 05:43:12;;;;;;;;;2.67;2.67;;;;;6.66;55.64;100754.47;4974909;28;45373;-83
2022/01/05 05:45:38;;;;;;;;;5.33;2.00;;;;;6.52;55.99;100743.38;4974787;28;45639;-83
2022/01/05 05:48:04;;;;;;;;;2.67;2.00;;;;;6.70;56.16;100774.69;4974684;28;45423;-83
2022/01/05 05:50:30;;;;;;;;;2.00;2.00;;;;;7.39;56.07;100889.34;4974299;28;45254;-83
2022/01/05 05:52:55;;;;;;;;;2.00;2.00;;;;;7.38;56.31;100884.97;4968428;28;45875;-83
2022/01/05 05:55:21;;;;;;;;;1.33;1.33;;;;;7.23;55.96;100860.66;4954431;28;45619;-83
2022/01/05 05:57:46;;;;;;;;;2.00;2.00;;;;;6.91;56.23;100799.72;4955316;28;45446;-83
2022/01/05 06:00:12;;;;;;;;;4.00;1.00;;;;;7.30;56.45;100872.84;4955455;28;45346;-83
2022/01/05 06:02:38;;;;;;;;;3.00;1.67;;;;;6.59;55.96;100754.69;4962154;28;45394;-83
2022/01/05 06:05:04;;;;;;;;;2.00;2.00;;;;;7.36;55.96;100888.56;4957859;28;45409;-83
2022/01/05 06:07:30;;;;;;;;;3.00;2.00;;;;;6.75;56.00;100798.38;4972671;28;46092;-84
2022/01/05 06:09:55;;;;;;;;;1.00;1.00;;;;;7.30;56.23;100889.59;4957602;28;53559;-85
2022/01/05 06:12:20;;;;;;;;;1.00;1.00;;;;;6.95;56.37;100837.56;4960639;28;45216;-82
2022/01/05 06:14:46;;;;;;;;;3.33;2.00;;;;;7.34;55.91;100916.91;4957797;28;47006;-84
2022/01/05 06:17:11;;;;;;;;;5.00;3.00;;;;;6.96;55.99;100863.16;4963944;28;45628;-84
2022/01/05 06:19:36;;;;;;;;;2.00;2.00;;;;;7.07;56.13;100887.59;4958263;28;45346;-84
2022/01/05 06:22:02;;;;;;;;;2.00;2.00;;;;;7.06;56.22;100891.16;4975437;28;45459;-83
2022/01/05 06:24:27;;;;;;;;;1.00;1.00;;;;;6.26;56.38;100755.53;4964403;28;47140;-84
2022/01/05 06:26:53;;;;;;;;;5.33;2.33;;;;;6.63;56.34;100812.84;4965035;28;46921;-91
2022/01/05 06:29:19;;;;;;;;;3.00;3.00;;;;;6.77;56.64;100846.91;4990861;28;45575;-83
2022/01/05 06:31:45;;;;;;;;;5.00;5.00;;;;;7.08;56.96;100893.78;4972315;28;45584;-84
2022/01/05 06:34:10;;;;;;;;;5.67;4.33;;;;;7.30;56.81;100928.50;4969624;28;46756;-85
2022/01/05 06:36:36;;;;;;;;;3.33;2.67;;;;;5.70;56.71;100665.22;4967523;28;45786;-88
2022/01/05 06:39:03;;;;;;;;;4.00;4.00;;;;;7.32;56.48;100951.41;4975255;28;45472;-83
2022/01/05 06:41:28;;;;;;;;;2.00;2.00;;;;;7.21;56.79;100912.84;4977014;28;45441;-84
2022/01/05 06:43:57;;;;;;;;;2.00;2.00;;;;;7.18;57.03;100911.16;4966929;28;45563;-84
2022/01/05 06:46:22;;;;;;;;;4.00;2.33;;;;;7.10;56.47;100908.72;4969852;28;45800;-85
2022/01/05 06:48:47;;;;;;;;;2.67;2.67;;;;;6.74;56.54;100850.50;4977284;28;45477;-85
2022/01/05 06:51:13;;;;;;;;;3.00;3.00;;;;;7.20;57.18;100933.19;4978316;28;45526;-84
2022/01/05 06:53:38;;;;;;;;;2.33;2.33;;;;;7.15;57.03;100927.16;4972163;28;47030;-83
2022/01/05 06:56:04;;;;;;;;;1.33;1.33;;;;;7.08;56.71;100902.59;4973123;28;45402;-86
2022/01/05 06:58:30;;;;;;;;;2.00;2.00;;;;;7.21;56.68;100934.94;4976666;28;45466;-84
2022/01/05 07:00:55;;;;;;;;;4.33;3.00;;;;;7.23;56.46;100949.00;4977263;28;45429;-84
2022/01/05 07:03:21;;;;;;;;;2.67;1.00;;;;;7.30;56.62;100941.75;4974516;28;45441;-87
2022/01/05 07:05:47;;;;;;;;;2.67;2.67;;;;;7.17;56.43;100935.94;4968771;28;45483;-86
2022/01/05 07:08:12;;;;;;;;;2.67;1.00;;;;;7.28;56.41;100952.44;4965124;28;45561;-86
2022/01/05 07:10:37;;;;;;;;;2.00;2.00;;;;;6.61;56.74;100838.47;4970939;28;45450;-84
2022/01/05 07:13:03;;;;;;;;;1.00;1.00;;;;;6.98;56.27;100906.41;4975096;28;53856;-84
2022/01/05 07:15:28;;;;;;;;;2.00;1.00;;;;;7.08;56.46;100925.56;4975197;28;45496;-84
2022/01/05 07:17:53;;;;;;;;;2.00;2.00;;;;;6.97;56.61;100921.41;4977003;28;45390;-85
2022/01/05 07:20:19;;;;;;;;;1.67;0.00;;;;;7.30;56.88;100970.94;4977468;28;45782;-83
2022/01/05 07:22:44;;;;;;;;;1.00;1.00;;;;;7.11;56.50;100950.19;4966270;28;48238;-85
2022/01/05 07:25:10;;;;;;;;;3.67;2.00;;;;;6.98;56.47;100924.94;4975236;28;45548;-87
2022/01/05 07:27:36;;;;;;;;;3.00;3.00;;;;;6.94;56.63;100925.94;4975567;28;45388;-88
2022/01/05 07:30:04;;;;;;;;;3.67;2.00;;;;;7.22;56.59;100991.47;4974157;28;45318;-84
2022/01/05 07:32:29;;;;;;;;;4.00;3.00;;;;;6.75;56.97;100905.19;4969050;28;46249;-85
2022/01/05 07:34:55;;;;;;;;;2.00;1.00;;;;;6.76;56.70;100901.63;4974667;28;45545;-85
2022/01/05 07:37:20;;;;;;;;;1.00;1.00;;;;;7.30;56.57;100969.13;4975254;28;45390;-81
2022/01/05 07:39:46;;;;;;;;;2.00;1.00;;;;;7.26;55.84;100953.34;4975405;28;45574;-90
2022/01/05 07:42:12;;;;;;;;;7.33;3.00;;;;;7.54;55.57;101003.91;4963001;28;46983;-86
2022/01/05 07:44:38;;;;;;;;;2.67;1.00;;;;;7.51;55.77;101007.47;4957252;28;45355;-85
2022/01/05 07:47:04;;;;;;;;;2.67;2.67;;;;;7.44;56.25;100997.94;4971882;28;45472;-85
2022/01/05 07:49:29;;;;;;;;;4.00;1.00;;;;;7.01;56.21;100926.66;4977164;28;45712;-86
2022/01/05 07:51:55;;;;;;;;;1.33;1.33;;;;;7.38;56.15;100996.34;4976219;28;46301;-86
2022/01/05 07:54:20;;;;;;;;;5.00;2.00;;;;;6.63;56.42;100881.69;4976516;28;45575;-86
2022/01/05 07:56:45;;;;;;;;;2.33;1.00;;;;;7.19;56.05;100968.56;4961731;28;45455;-86
2022/01/05 07:59:11;;;;;;;;;2.67;1.33;;;;;7.13;56.42;100981.97;4957032;28;45361;-86
2022/01/05 08:01:36;;;;;;;;;3.00;3.00;;;;;6.70;56.24;100900.94;4969244;28;45512;-85
2022/01/05 08:04:02;;;;;;;;;4.67;3.33;;;;;7.07;56.79;100967.13;4974783;28;45570;-84
2022/01/05 08:06:27;;;;;;;;;3.67;3.67;;;;;7.10;56.82;100977.63;4976168;28;45364;-85
2022/01/05 08:08:52;;;;;;;;;2.00;2.00;;;;;6.65;56.38;100911.66;4974278;28;45551;-87
2022/01/05 08:11:18;;;;;;;;;4.00;2.00;;;;;7.30;56.34;101021.31;4967118;28;45468;-87
2022/01/05 08:13:43;;;;;;;;;2.00;2.00;;;;;6.61;57.06;100907.34;4953983;28;45524;-86
2022/01/05 08:16:09;;;;;;;;;1.00;1.00;;;;;6.79;56.78;100944.84;4960693;28;45417;-84
2022/01/05 08:18:34;;;;;;;;;3.00;3.00;;;;;7.02;56.72;100984.03;4958387;28;45461;-84
2022/01/05 08:20:59;;;;;;;;;4.00;2.00;;;;;7.01;56.33;100998.19;4977888;28;45523;-84
2022/01/05 08:23:25;;;;;;;;;6.00;5.00;;;;;6.93;56.40;100993.06;4978126;28;45339;-84
2022/01/05 08:25:52;;;;;;;;;3.33;2.67;;;;;6.67;56.88;100957.50;4960967;28;45314;-84
2022/01/05 08:28:18;;;;;;;;;3.00;3.00;;;;;7.09;56.70;101028.00;4967129;28;45369;-85
2022/01/05 08:30:45;;;;;;;;;2.00;2.00;;;;;7.29;56.59;101067.28;4973649;28;46546;-84
2022/01/05 08:33:12;;;;;;;;;3.33;2.00;;;;;7.10;57.09;101028.00;4961517;28;45498;-84
2022/01/05 08:35:37;;;;;;;;;4.33;4.33;;;;;7.24;57.41;101048.00;4966700;28;45696;-84
2022/01/05 08:38:03;;;;;;;;;27.33;24.33;;;;;7.35;57.45;101068.03;4964361;28;45622;-83
2022/01/05 08:40:30;;;;;;;;;5.67;4.67;;;;;7.39;57.64;101074.97;4974909;28;46086;-84
2022/01/05 08:42:56;;;;;;;;;1.33;1.33;;;;;7.30;56.78;101063.72;4959717;28;45885;-84
2022/01/05 08:45:22;;;;;;;;;6.33;3.00;;;;;7.14;57.23;101036.72;4974538;28;45333;-84
2022/01/05 08:47:51;;;;;;;;;4.00;2.33;;;;;7.36;56.89;101059.13;4968771;28;45815;-83
2022/01/05 08:50:19;;;;;;;;;5.67;4.33;;;;;7.06;57.01;101012.19;4964504;28;46729;-84
2022/01/05 08:52:45;;;;;;;;;4.00;3.00;;;;;7.48;56.81;101081.81;4963996;28;45413;-83
2022/01/05 08:55:12;;;;;;;;;2.33;2.33;;;;;7.47;56.88;101076.53;4957494;28;45425;-84
2022/01/05 08:57:40;;;;;;;;;3.00;2.00;;;;;7.51;56.55;101073.78;4970540;28;45391;-84
2022/01/05 09:00:06;;;;;;;;;3.00;1.33;;;;;7.37;56.87;101050.28;4972976;28;46477;-83
2022/01/05 09:02:32;;;;;;;;;4.67;3.00;;;;;7.55;56.83;101086.06;4971108;28;45347;-83
2022/01/05 09:04:57;;;;;;;;;4.00;2.67;;;;;7.55;57.09;101091.38;4967896;28;45580;-84
2022/01/05 09:07:22;;;;;;;;;5.00;3.00;;;;;7.14;56.91;101016.41;4963347;28;45698;-84
2022/01/05 09:09:48;;;;;;;;;3.00;2.00;;;;;7.37;57.18;101050.28;4968068;28;45363;-84
2022/01/05 09:12:13;;;;;;;;;3.67;3.67;;;;;7.64;57.01;101092.06;4963357;28;45260;-84
2022/01/05 09:14:40;;;;;;;;;3.00;3.00;;;;;7.60;56.95;101086.81;4965740;28;45416;-84
2022/01/05 09:17:06;;;;;;;;;4.33;4.00;;;;;7.53;57.11;101066.66;4960242;28;45401;-84
2022/01/05 09:19:33;;;;;;;;;3.00;3.00;;;;;7.49;56.69;101072.06;4966521;28;45672;-84
2022/01/05 09:21:58;;;;;;;;;5.00;3.00;;;;;7.73;57.11;101100.63;4963641;28;45520;-85
2022/01/05 09:24:25;;;;;;;;;3.00;1.00;;;;;7.90;56.61;101109.94;4966474;28;45378;-84
2022/01/05 09:26:51;;;;;;;;;6.00;4.00;;;;;7.71;57.02;101067.09;4961924;28;45434;-84
2022/01/05 09:29:17;;;;;;;;;2.00;2.00;;;;;7.65;56.68;101051.34;4960875;28;46484;-84
2022/01/05 09:31:43;;;;;;;;;2.00;2.00;;;;;7.67;56.42;101044.22;4964748;28;45296;-85
2022/01/05 09:34:08;;;;;;;;;5.67;3.00;;;;;7.75;56.44;101071.38;4966112;28;45322;-84
2022/01/05 09:36:37;;;;;;;;;3.33;3.00;;;;;7.88;56.25;101096.69;4959480;28;45460;-85
2022/01/05 09:42:05;;;;;;;;;5.33;3.00;;;;;8.22;56.52;101136.47;4958982;28;45393;-84
2022/01/05 09:44:41;;;;;;;;;2.33;2.33;;;;;8.30;56.13;101146.00;4971375;28;45311;-83
2022/01/05 09:47:26;;;;;;;;;2.00;2.00;;;;;8.36;56.21;101151.16;4966703;28;45487;-83
2022/01/05 09:50:04;;;;;;;;;3.00;3.00;;;;;8.26;56.17;101126.63;4961123;28;45424;-84
2022/01/05 09:52:31;;;;;;;;;129.00;110.75;;;;;8.06;55.75;101079.41;4962157;28;45361;-83
2022/01/05 09:54:57;;;;;;;;;26.67;24.00;;;;;7.59;55.76;100997.53;4958889;28;45470;-83
2022/01/05 09:57:23;;;;;;;;;3.33;2.00;;;;;8.57;55.96;101155.00;4963220;28;45788;-83
2022/01/05 09:59:51;;;;;;;;;5.00;2.67;;;;;8.36;55.88;101109.53;4973436;28;45519;-85
2022/01/05 10:02:18;;;;;;;;;5.00;4.00;;;;;8.60;55.88;101147.81;4962687;28;45433;-83
2022/01/05 10:04:45;;;;;;;;;2.33;2.33;;;;;8.51;55.31;101136.59;4965966;28;45620;-83
2022/01/05 10:07:11;;;;;;;;;2.00;2.00;;;;;8.76;56.01;101168.66;4959224;28;45378;-84
2022/01/05 10:09:38;;;;;;;;;5.00;5.00;;;;;8.77;55.70;101147.31;4970539;28;46327;-83
2022/01/05 10:12:04;;;;;;;;;3.00;3.00;;;;;8.58;55.53;101099.16;4963404;28;45782;-83
2022/01/05 10:14:30;;;;;;;;;6.00;3.00;;;;;9.04;55.70;101174.88;4962263;28;45428;-84
2022/01/05 10:17:07;;;;;;;;;5.00;3.33;;;;;9.11;55.67;101174.66;4966414;28;45276;-84
2022/01/05 10:19:34;;;;;;;;;3.67;3.00;;;;;8.84;54.73;101124.09;4963668;28;46324;-84
2022/01/05 10:22:00;;;;;;;;;4.00;3.00;;;;;9.11;55.08;101162.25;4966096;28;45365;-84
2022/01/05 10:24:46;;;;;;;;;6.00;2.00;;;;;9.18;54.93;101168.28;4958146;28;45435;-84
2022/01/05 10:27:16;;;;;;;;;3.00;3.00;;;;;9.13;53.71;101178.16;4966229;28;45477;-84
2022/01/05 10:29:57;;;;;;;;;2.00;2.00;;;;;8.85;54.24;101123.19;4956949;28;45495;-85
2022/01/05 10:32:25;;;;;;;;;5.00;5.00;;;;;8.76;54.59;101103.06;4967760;28;45299;-84
2022/01/05 10:35:16;;;;;;;;;2.00;2.00;;;;;8.98;54.59;101137.81;4964466;28;45274;-84
2022/01/05 10:37:44;;;;;;;;;3.00;3.00;;;;;8.87;54.64;101111.59;4960302;28;45625;-84
2022/01/05 10:40:19;;;;;;;;;4.33;1.67;;;;;8.80;54.06;101091.44;4960380;28;47502;-84
2022/01/05 10:42:46;;;;;;;;;4.33;3.00;;;;;8.94;54.24;101101.63;4955425;28;45377;-85
2022/01/05 10:45:15;;;;;;;;;4.00;2.00;;;;;9.38;54.19;101165.84;4955846;28;45840;-84
2022/01/05 10:47:42;;;;;;;;;3.00;3.00;;;;;8.96;53.46;101086.50;4965454;28;45317;-84
2022/01/05 10:50:17;;;;;;;;;2.00;2.00;;;;;9.37;54.34;101166.75;4963311;28;46054;-85
2022/01/05 10:52:52;;;;;;;;;4.33;2.00;;;;;9.35;54.40;101151.78;4965418;28;45380;-83
2022/01/05 10:55:19;;;;;;;;;3.00;3.00;;;;;9.28;54.31;101138.66;4967954;28;45507;-83
2022/01/05 10:57:57;;;;;;;;;6.00;4.00;;;;;9.56;53.73;101183.00;4967327;28;45256;-83
2022/01/05 11:00:35;;;;;;;;;5.00;3.00;;;;;9.47;53.40;101172.66;4962350;28;45548;-83
2022/01/05 11:03:01;;;;;;;;;4.00;4.00;;;;;9.43;53.48;101155.91;4970149;28;45528;-83
2022/01/05 11:05:27;;;;;;;;;4.00;4.00;;;;;9.57;53.25;101175.88;4967241;28;45184;-82
2022/01/05 11:08:06;;;;;;;;;9.67;5.00;;;;;9.79;53.79;101197.34;4967778;28;45509;-82
2022/01/05 11:10:32;;;;;;;;;2.67;2.67;;;;;9.72;53.08;101178.91;4971486;28;46386;-83
2022/01/05 11:12:57;;;;;;;;;5.00;3.67;;;;;9.34;52.81;101115.44;4962201;28;45469;-83
2022/01/05 11:15:23;;;;;;;;;3.67;3.00;;;;;9.86;53.30;101209.53;4962840;28;45465;-82
2022/01/05 11:18:13;;;;;;;;;4.67;4.67;;;;;9.88;53.58;101208.56;4971886;28;45372;-82
2022/01/05 11:20:59;;;;;;;;;3.00;2.33;;;;;9.86;52.79;101196.22;4970402;28;46076;-82
2022/01/05 11:23:26;;;;;;;;;3.67;3.00;;;;;9.68;53.15;101149.78;4967220;28;45357;-83
2022/01/05 11:25:55;;;;;;;;;3.00;2.00;;;;;10.01;52.64;101195.69;4970777;28;45314;-82
2022/01/05 11:28:22;;;;;;;;;2.00;0.33;;;;;10.03;52.27;101204.50;4969971;28;45507;-81
2022/01/05 11:30:49;;;;;;;;;4.00;3.00;;;;;10.00;51.92;101196.63;4962159;28;48324;-81
2022/01/05 11:33:16;;;;;;;;;5.00;4.67;;;;;10.10;52.50;101207.84;4961097;28;45377;-83